sensor_id;sensor_type;location;lat;lon;timestamp;P1;durP1;ratioP1;P2;durP2;ratioP2
56201;SDS011;42117;50.360;3.508;2022-10-17T00:01:01;3.70;;;2.10;;
56201;SDS011;42117;50.360;3.508;2022-10-17T00:03:27;2.13;;;1.83;;
56201;SDS011;42117;50.360;3.508;2022-10-17T00:05:54;2.38;;;2.17;;
56201;SDS011;42117;50.360;3.508;2022-10-17T00:08:20;1.70;;;1.55;;
56201;SDS011;42117;50.360;3.508;2022-10-17T00:10:54;4.28;;;2.33;;
56201;SDS011;42117;50.360;3.508;2022-10-17T00:13:20;2.50;;;2.10;;
56201;SDS011;42117;50.360;3.508;2022-10-17T00:15:46;4.72;;;2.65;;
56201;SDS011;42117;50.360;3.508;2022-10-17T00:18:12;5.28;;;3.00;;
56201;SDS011;42117;50.360;3.508;2022-10-17T00:20:38;3.38;;;2.58;;
56201;SDS011;42117;50.360;3.508;2022-10-17T00:23:04;4.05;;;2.53;;
56201;SDS011;42117;50.360;3.508;2022-10-17T00:25:30;4.07;;;2.42;;
56201;SDS011;42117;50.360;3.508;2022-10-17T00:27:56;5.80;;;2.47;;
56201;SDS011;42117;50.360;3.508;2022-10-17T00:30:22;3.13;;;2.10;;
56201;SDS011;42117;50.360;3.508;2022-10-17T00:32:48;13.25;;;2.45;;
56201;SDS011;42117;50.360;3.508;2022-10-17T00:35:14;2.78;;;2.42;;
56201;SDS011;42117;50.360;3.508;2022-10-17T00:37:40;4.28;;;2.53;;
56201;SDS011;42117;50.360;3.508;2022-10-17T00:40:06;3.85;;;1.83;;
56201;SDS011;42117;50.360;3.508;2022-10-17T00:42:33;2.88;;;2.58;;
56201;SDS011;42117;50.360;3.508;2022-10-17T00:45:05;4.88;;;2.15;;
56201;SDS011;42117;50.360;3.508;2022-10-17T00:47:31;5.65;;;1.83;;
56201;SDS011;42117;50.360;3.508;2022-10-17T00:49:57;8.50;;;2.80;;
56201;SDS011;42117;50.360;3.508;2022-10-17T00:52:25;4.28;;;2.90;;
56201;SDS011;42117;50.360;3.508;2022-10-17T00:54:53;6.35;;;2.85;;
56201;SDS011;42117;50.360;3.508;2022-10-17T00:57:21;2.78;;;1.90;;
56201;SDS011;42117;50.360;3.508;2022-10-17T00:59:48;6.40;;;2.75;;
56201;SDS011;42117;50.360;3.508;2022-10-17T01:02:16;4.57;;;2.58;;
56201;SDS011;42117;50.360;3.508;2022-10-17T01:04:44;2.85;;;2.38;;
56201;SDS011;42117;50.360;3.508;2022-10-17T01:07:11;4.45;;;2.53;;
56201;SDS011;42117;50.360;3.508;2022-10-17T01:09:37;1.98;;;1.77;;
56201;SDS011;42117;50.360;3.508;2022-10-17T01:17:01;3.33;;;2.55;;
56201;SDS011;42117;50.360;3.508;2022-10-17T01:22:00;6.07;;;2.40;;
56201;SDS011;42117;50.360;3.508;2022-10-17T01:24:54;2.85;;;2.33;;
56201;SDS011;42117;50.360;3.508;2022-10-17T01:29:55;4.82;;;2.45;;
56201;SDS011;42117;50.360;3.508;2022-10-17T01:37:52;2.95;;;2.75;;
56201;SDS011;42117;50.360;3.508;2022-10-17T01:40:34;9.55;;;2.85;;
56201;SDS011;42117;50.360;3.508;2022-10-17T01:43:07;4.05;;;2.28;;
56201;SDS011;42117;50.360;3.508;2022-10-17T01:45:58;7.30;;;2.28;;
56201;SDS011;42117;50.360;3.508;2022-10-17T01:48:23;3.40;;;2.38;;
56201;SDS011;42117;50.360;3.508;2022-10-17T01:50:51;3.05;;;2.20;;
56201;SDS011;42117;50.360;3.508;2022-10-17T01:53:21;5.50;;;2.95;;
56201;SDS011;42117;50.360;3.508;2022-10-17T01:55:49;3.97;;;2.22;;
56201;SDS011;42117;50.360;3.508;2022-10-17T01:58:25;3.75;;;2.85;;
56201;SDS011;42117;50.360;3.508;2022-10-17T02:00:52;2.25;;;1.95;;
56201;SDS011;42117;50.360;3.508;2022-10-17T02:03:19;7.45;;;3.00;;
56201;SDS011;42117;50.360;3.508;2022-10-17T02:05:46;4.47;;;2.50;;
56201;SDS011;42117;50.360;3.508;2022-10-17T02:08:12;3.75;;;2.80;;
56201;SDS011;42117;50.360;3.508;2022-10-17T02:10:40;5.38;;;2.95;;
56201;SDS011;42117;50.360;3.508;2022-10-17T02:13:14;2.65;;;1.98;;
56201;SDS011;42117;50.360;3.508;2022-10-17T02:18:15;8.00;;;2.97;;
56201;SDS011;42117;50.360;3.508;2022-10-17T02:20:49;8.13;;;3.45;;
56201;SDS011;42117;50.360;3.508;2022-10-17T02:23:19;3.63;;;2.58;;
56201;SDS011;42117;50.360;3.508;2022-10-17T02:25:50;6.85;;;2.50;;
56201;SDS011;42117;50.360;3.508;2022-10-17T02:28:19;5.30;;;2.10;;
56201;SDS011;42117;50.360;3.508;2022-10-17T02:30:48;4.68;;;3.00;;
56201;SDS011;42117;50.360;3.508;2022-10-17T02:33:17;8.45;;;2.45;;
56201;SDS011;42117;50.360;3.508;2022-10-17T02:38:11;2.65;;;2.25;;
56201;SDS011;42117;50.360;3.508;2022-10-17T02:40:38;4.63;;;3.47;;
56201;SDS011;42117;50.360;3.508;2022-10-17T02:43:05;8.93;;;2.97;;
56201;SDS011;42117;50.360;3.508;2022-10-17T02:45:31;4.80;;;2.95;;
56201;SDS011;42117;50.360;3.508;2022-10-17T02:48:07;4.80;;;2.97;;
56201;SDS011;42117;50.360;3.508;2022-10-17T02:50:42;2.97;;;2.55;;
56201;SDS011;42117;50.360;3.508;2022-10-17T02:53:13;5.63;;;2.55;;
56201;SDS011;42117;50.360;3.508;2022-10-17T02:55:42;9.60;;;2.17;;
56201;SDS011;42117;50.360;3.508;2022-10-17T02:58:12;3.00;;;2.38;;
56201;SDS011;42117;50.360;3.508;2022-10-17T03:00:40;3.47;;;2.17;;
56201;SDS011;42117;50.360;3.508;2022-10-17T03:06:02;4.97;;;2.13;;
56201;SDS011;42117;50.360;3.508;2022-10-17T03:08:28;3.45;;;3.00;;
56201;SDS011;42117;50.360;3.508;2022-10-17T03:10:54;2.80;;;2.45;;
56201;SDS011;42117;50.360;3.508;2022-10-17T03:13:20;3.30;;;2.25;;
56201;SDS011;42117;50.360;3.508;2022-10-17T03:15:46;5.25;;;2.42;;
56201;SDS011;42117;50.360;3.508;2022-10-17T03:18:12;3.72;;;2.28;;
56201;SDS011;42117;50.360;3.508;2022-10-17T03:20:38;3.50;;;2.33;;
56201;SDS011;42117;50.360;3.508;2022-10-17T03:23:04;4.00;;;2.30;;
56201;SDS011;42117;50.360;3.508;2022-10-17T03:25:30;4.53;;;2.53;;
56201;SDS011;42117;50.360;3.508;2022-10-17T03:27:57;3.85;;;2.60;;
56201;SDS011;42117;50.360;3.508;2022-10-17T03:30:24;10.77;;;3.10;;
56201;SDS011;42117;50.360;3.508;2022-10-17T03:32:50;6.28;;;2.50;;
56201;SDS011;42117;50.360;3.508;2022-10-17T03:35:16;2.65;;;2.33;;
56201;SDS011;42117;50.360;3.508;2022-10-17T03:37:42;4.10;;;2.30;;
56201;SDS011;42117;50.360;3.508;2022-10-17T03:40:08;3.20;;;2.28;;
56201;SDS011;42117;50.360;3.508;2022-10-17T03:42:34;2.65;;;2.45;;
56201;SDS011;42117;50.360;3.508;2022-10-17T03:45:00;3.67;;;2.67;;
56201;SDS011;42117;50.360;3.508;2022-10-17T03:47:27;2.90;;;2.17;;
56201;SDS011;42117;50.360;3.508;2022-10-17T03:49:53;10.52;;;2.80;;
56201;SDS011;42117;50.360;3.508;2022-10-17T03:52:19;3.65;;;2.40;;
56201;SDS011;42117;50.360;3.508;2022-10-17T03:54:45;10.20;;;2.58;;
56201;SDS011;42117;50.360;3.508;2022-10-17T03:57:11;6.18;;;2.47;;
56201;SDS011;42117;50.360;3.508;2022-10-17T03:59:37;5.30;;;2.78;;
56201;SDS011;42117;50.360;3.508;2022-10-17T04:02:03;3.15;;;2.85;;
56201;SDS011;42117;50.360;3.508;2022-10-17T04:04:29;4.43;;;2.30;;
56201;SDS011;42117;50.360;3.508;2022-10-17T04:06:55;3.17;;;2.80;;
56201;SDS011;42117;50.360;3.508;2022-10-17T04:09:21;3.13;;;2.30;;
56201;SDS011;42117;50.360;3.508;2022-10-17T04:11:47;6.25;;;2.50;;
56201;SDS011;42117;50.360;3.508;2022-10-17T04:14:13;5.53;;;2.80;;
56201;SDS011;42117;50.360;3.508;2022-10-17T04:16:39;0.75;;;0.75;;
56201;SDS011;42117;50.360;3.508;2022-10-17T04:19:05;7.15;;;2.75;;
56201;SDS011;42117;50.360;3.508;2022-10-17T04:21:31;5.45;;;2.97;;
56201;SDS011;42117;50.360;3.508;2022-10-17T04:23:58;3.63;;;3.08;;
56201;SDS011;42117;50.360;3.508;2022-10-17T04:26:25;5.15;;;2.45;;
56201;SDS011;42117;50.360;3.508;2022-10-17T04:28:51;3.60;;;2.97;;
56201;SDS011;42117;50.360;3.508;2022-10-17T04:31:17;3.97;;;2.70;;
56201;SDS011;42117;50.360;3.508;2022-10-17T04:33:45;5.65;;;3.38;;
56201;SDS011;42117;50.360;3.508;2022-10-17T04:36:12;7.35;;;2.90;;
56201;SDS011;42117;50.360;3.508;2022-10-17T04:38:39;3.50;;;2.60;;
56201;SDS011;42117;50.360;3.508;2022-10-17T04:41:06;7.85;;;3.00;;
56201;SDS011;42117;50.360;3.508;2022-10-17T04:43:33;3.63;;;2.70;;
56201;SDS011;42117;50.360;3.508;2022-10-17T04:46:00;9.32;;;2.80;;
56201;SDS011;42117;50.360;3.508;2022-10-17T04:48:27;6.70;;;2.83;;
56201;SDS011;42117;50.360;3.508;2022-10-17T04:50:57;3.58;;;2.90;;
56201;SDS011;42117;50.360;3.508;2022-10-17T04:53:24;8.27;;;2.90;;
56201;SDS011;42117;50.360;3.508;2022-10-17T04:55:51;4.47;;;2.50;;
56201;SDS011;42117;50.360;3.508;2022-10-17T04:58:17;3.95;;;2.50;;
56201;SDS011;42117;50.360;3.508;2022-10-17T05:00:43;4.68;;;3.05;;
56201;SDS011;42117;50.360;3.508;2022-10-17T05:03:09;2.70;;;2.50;;
56201;SDS011;42117;50.360;3.508;2022-10-17T05:05:39;3.25;;;2.58;;
56201;SDS011;42117;50.360;3.508;2022-10-17T05:08:05;5.00;;;2.78;;
56201;SDS011;42117;50.360;3.508;2022-10-17T05:10:36;10.00;;;2.75;;
56201;SDS011;42117;50.360;3.508;2022-10-17T05:13:02;3.30;;;2.90;;
56201;SDS011;42117;50.360;3.508;2022-10-17T05:15:28;9.35;;;3.00;;
56201;SDS011;42117;50.360;3.508;2022-10-17T05:17:54;8.60;;;2.13;;
56201;SDS011;42117;50.360;3.508;2022-10-17T05:20:20;5.45;;;2.67;;
56201;SDS011;42117;50.360;3.508;2022-10-17T05:22:46;6.43;;;2.78;;
56201;SDS011;42117;50.360;3.508;2022-10-17T05:25:12;3.60;;;2.20;;
56201;SDS011;42117;50.360;3.508;2022-10-17T05:27:38;4.60;;;2.60;;
56201;SDS011;42117;50.360;3.508;2022-10-17T05:30:04;2.58;;;2.38;;
56201;SDS011;42117;50.360;3.508;2022-10-17T05:32:31;5.35;;;3.08;;
56201;SDS011;42117;50.360;3.508;2022-10-17T05:34:57;4.07;;;2.60;;
56201;SDS011;42117;50.360;3.508;2022-10-17T05:37:23;3.50;;;2.95;;
56201;SDS011;42117;50.360;3.508;2022-10-17T05:39:49;6.38;;;3.03;;
56201;SDS011;42117;50.360;3.508;2022-10-17T05:42:15;9.32;;;3.70;;
56201;SDS011;42117;50.360;3.508;2022-10-17T05:44:41;5.88;;;3.45;;
56201;SDS011;42117;50.360;3.508;2022-10-17T05:47:07;3.20;;;2.58;;
56201;SDS011;42117;50.360;3.508;2022-10-17T05:49:33;5.60;;;3.10;;
56201;SDS011;42117;50.360;3.508;2022-10-17T05:52:00;5.82;;;2.65;;
56201;SDS011;42117;50.360;3.508;2022-10-17T05:54:26;4.32;;;2.90;;
56201;SDS011;42117;50.360;3.508;2022-10-17T05:56:52;3.03;;;2.13;;
56201;SDS011;42117;50.360;3.508;2022-10-17T05:59:18;4.50;;;2.30;;
56201;SDS011;42117;50.360;3.508;2022-10-17T06:01:44;5.82;;;2.85;;
56201;SDS011;42117;50.360;3.508;2022-10-17T06:04:10;12.32;;;4.78;;
56201;SDS011;42117;50.360;3.508;2022-10-17T06:06:37;5.47;;;3.55;;
56201;SDS011;42117;50.360;3.508;2022-10-17T06:09:03;2.50;;;1.77;;
56201;SDS011;42117;50.360;3.508;2022-10-17T06:11:29;1.95;;;1.83;;
56201;SDS011;42117;50.360;3.508;2022-10-17T06:13:55;3.42;;;1.42;;
56201;SDS011;42117;50.360;3.508;2022-10-17T06:16:21;2.03;;;1.40;;
56201;SDS011;42117;50.360;3.508;2022-10-17T06:18:47;3.22;;;2.72;;
56201;SDS011;42117;50.360;3.508;2022-10-17T06:21:14;7.30;;;3.05;;
56201;SDS011;42117;50.360;3.508;2022-10-17T06:23:40;5.60;;;2.88;;
56201;SDS011;42117;50.360;3.508;2022-10-17T06:26:06;7.43;;;2.70;;
56201;SDS011;42117;50.360;3.508;2022-10-17T06:28:32;6.95;;;3.25;;
56201;SDS011;42117;50.360;3.508;2022-10-17T06:30:58;8.55;;;3.25;;
56201;SDS011;42117;50.360;3.508;2022-10-17T06:33:24;3.35;;;2.60;;
56201;SDS011;42117;50.360;3.508;2022-10-17T06:35:51;8.50;;;3.92;;
56201;SDS011;42117;50.360;3.508;2022-10-17T06:38:18;8.40;;;3.38;;
56201;SDS011;42117;50.360;3.508;2022-10-17T06:40:44;5.10;;;2.60;;
56201;SDS011;42117;50.360;3.508;2022-10-17T06:43:10;11.73;;;2.83;;
56201;SDS011;42117;50.360;3.508;2022-10-17T06:45:37;5.45;;;1.83;;
56201;SDS011;42117;50.360;3.508;2022-10-17T06:48:03;16.25;;;3.65;;
56201;SDS011;42117;50.360;3.508;2022-10-17T06:50:29;14.93;;;3.15;;
56201;SDS011;42117;50.360;3.508;2022-10-17T06:52:55;23.30;;;4.53;;
56201;SDS011;42117;50.360;3.508;2022-10-17T06:55:21;3.92;;;2.80;;
56201;SDS011;42117;50.360;3.508;2022-10-17T06:57:47;17.98;;;3.50;;
56201;SDS011;42117;50.360;3.508;2022-10-17T07:00:13;6.30;;;3.40;;
56201;SDS011;42117;50.360;3.508;2022-10-17T07:02:41;12.18;;;3.40;;
56201;SDS011;42117;50.360;3.508;2022-10-17T07:05:07;9.75;;;3.75;;
56201;SDS011;42117;50.360;3.508;2022-10-17T07:07:33;9.90;;;3.15;;
56201;SDS011;42117;50.360;3.508;2022-10-17T07:09:59;11.40;;;4.05;;
56201;SDS011;42117;50.360;3.508;2022-10-17T07:12:25;5.60;;;3.92;;
56201;SDS011;42117;50.360;3.508;2022-10-17T07:14:51;6.25;;;3.22;;
56201;SDS011;42117;50.360;3.508;2022-10-17T07:17:17;10.85;;;4.18;;
56201;SDS011;42117;50.360;3.508;2022-10-17T07:19:43;12.90;;;4.68;;
56201;SDS011;42117;50.360;3.508;2022-10-17T07:22:10;16.27;;;4.63;;
56201;SDS011;42117;50.360;3.508;2022-10-17T07:24:37;9.93;;;4.35;;
56201;SDS011;42117;50.360;3.508;2022-10-17T07:27:03;14.43;;;5.45;;
56201;SDS011;42117;50.360;3.508;2022-10-17T07:29:29;8.40;;;4.03;;
56201;SDS011;42117;50.360;3.508;2022-10-17T07:31:55;5.32;;;3.80;;
56201;SDS011;42117;50.360;3.508;2022-10-17T07:34:21;5.22;;;3.70;;
56201;SDS011;42117;50.360;3.508;2022-10-17T07:36:51;13.65;;;3.90;;
56201;SDS011;42117;50.360;3.508;2022-10-17T07:39:17;5.97;;;3.55;;
56201;SDS011;42117;50.360;3.508;2022-10-17T07:41:43;6.10;;;3.22;;
56201;SDS011;42117;50.360;3.508;2022-10-17T07:44:09;10.48;;;3.50;;
56201;SDS011;42117;50.360;3.508;2022-10-17T07:46:35;3.88;;;3.10;;
56201;SDS011;42117;50.360;3.508;2022-10-17T07:49:01;5.20;;;3.58;;
56201;SDS011;42117;50.360;3.508;2022-10-17T07:51:27;4.78;;;3.10;;
56201;SDS011;42117;50.360;3.508;2022-10-17T07:53:53;6.65;;;3.83;;
56201;SDS011;42117;50.360;3.508;2022-10-17T07:56:19;13.75;;;3.90;;
56201;SDS011;42117;50.360;3.508;2022-10-17T07:58:48;11.33;;;3.23;;
56201;SDS011;42117;50.360;3.508;2022-10-17T08:01:14;7.57;;;4.25;;
56201;SDS011;42117;50.360;3.508;2022-10-17T08:03:42;12.02;;;3.67;;
56201;SDS011;42117;50.360;3.508;2022-10-17T08:06:09;6.93;;;3.45;;
56201;SDS011;42117;50.360;3.508;2022-10-17T08:08:35;10.27;;;3.67;;
56201;SDS011;42117;50.360;3.508;2022-10-17T08:11:02;17.10;;;4.03;;
56201;SDS011;42117;50.360;3.508;2022-10-17T08:13:28;7.78;;;3.65;;
56201;SDS011;42117;50.360;3.508;2022-10-17T08:15:57;6.55;;;3.47;;
56201;SDS011;42117;50.360;3.508;2022-10-17T08:18:23;6.30;;;3.78;;
56201;SDS011;42117;50.360;3.508;2022-10-17T08:20:49;6.45;;;3.88;;
56201;SDS011;42117;50.360;3.508;2022-10-17T08:23:15;5.57;;;3.95;;
56201;SDS011;42117;50.360;3.508;2022-10-17T08:25:41;10.23;;;3.55;;
56201;SDS011;42117;50.360;3.508;2022-10-17T08:28:07;5.53;;;4.00;;
56201;SDS011;42117;50.360;3.508;2022-10-17T08:30:33;6.72;;;4.40;;
56201;SDS011;42117;50.360;3.508;2022-10-17T08:33:00;12.30;;;3.20;;
56201;SDS011;42117;50.360;3.508;2022-10-17T08:35:26;8.35;;;2.97;;
56201;SDS011;42117;50.360;3.508;2022-10-17T08:37:52;5.60;;;3.13;;
56201;SDS011;42117;50.360;3.508;2022-10-17T08:40:20;9.60;;;3.28;;
56201;SDS011;42117;50.360;3.508;2022-10-17T08:48:13;3.67;;;3.05;;
56201;SDS011;42117;50.360;3.508;2022-10-17T08:50:45;6.57;;;3.38;;
56201;SDS011;42117;50.360;3.508;2022-10-17T08:55:39;6.60;;;3.33;;
56201;SDS011;42117;50.360;3.508;2022-10-17T08:58:47;6.38;;;3.22;;
56201;SDS011;42117;50.360;3.508;2022-10-17T09:03:27;6.40;;;3.17;;
56201;SDS011;42117;50.360;3.508;2022-10-17T09:21:41;8.77;;;3.97;;
56201;SDS011;42117;50.360;3.508;2022-10-17T09:24:11;7.85;;;3.72;;
56201;SDS011;42117;50.360;3.508;2022-10-17T09:26:38;20.75;;;4.05;;
56201;SDS011;42117;50.360;3.508;2022-10-17T09:29:16;5.97;;;3.17;;
56201;SDS011;42117;50.360;3.508;2022-10-17T09:31:44;3.72;;;3.35;;
56201;SDS011;42117;50.360;3.508;2022-10-17T09:34:10;4.00;;;3.10;;
56201;SDS011;42117;50.360;3.508;2022-10-17T09:36:37;5.32;;;2.95;;
56201;SDS011;42117;50.360;3.508;2022-10-17T09:39:04;7.18;;;3.30;;
56201;SDS011;42117;50.360;3.508;2022-10-17T09:41:53;7.78;;;2.95;;
56201;SDS011;42117;50.360;3.508;2022-10-17T09:44:29;12.88;;;3.20;;
56201;SDS011;42117;50.360;3.508;2022-10-17T09:49:32;3.55;;;2.92;;
56201;SDS011;42117;50.360;3.508;2022-10-17T09:51:59;8.55;;;3.95;;
56201;SDS011;42117;50.360;3.508;2022-10-17T09:54:28;7.30;;;2.50;;
56201;SDS011;42117;50.360;3.508;2022-10-17T09:59:30;5.40;;;3.05;;
56201;SDS011;42117;50.360;3.508;2022-10-17T10:02:06;7.22;;;2.40;;
56201;SDS011;42117;50.360;3.508;2022-10-17T10:04:33;4.50;;;2.05;;
56201;SDS011;42117;50.360;3.508;2022-10-17T10:07:03;5.15;;;2.45;;
56201;SDS011;42117;50.360;3.508;2022-10-17T10:09:30;2.50;;;2.22;;
56201;SDS011;42117;50.360;3.508;2022-10-17T10:11:57;2.22;;;1.70;;
56201;SDS011;42117;50.360;3.508;2022-10-17T10:16:50;5.78;;;2.20;;
56201;SDS011;42117;50.360;3.508;2022-10-17T10:19:28;2.03;;;1.20;;
56201;SDS011;42117;50.360;3.508;2022-10-17T10:22:18;6.57;;;3.10;;
56201;SDS011;42117;50.360;3.508;2022-10-17T10:24:43;6.38;;;3.95;;
56201;SDS011;42117;50.360;3.508;2022-10-17T10:27:13;9.57;;;3.28;;
56201;SDS011;42117;50.360;3.508;2022-10-17T10:29:47;1.50;;;1.30;;
56201;SDS011;42117;50.360;3.508;2022-10-17T10:32:18;2.53;;;1.92;;
56201;SDS011;42117;50.360;3.508;2022-10-17T10:34:47;15.65;;;4.65;;
56201;SDS011;42117;50.360;3.508;2022-10-17T10:37:15;6.67;;;3.30;;
56201;SDS011;42117;50.360;3.508;2022-10-17T10:39:48;5.80;;;3.30;;
56201;SDS011;42117;50.360;3.508;2022-10-17T10:42:17;9.63;;;4.47;;
56201;SDS011;42117;50.360;3.508;2022-10-17T10:44:44;9.20;;;3.28;;
56201;SDS011;42117;50.360;3.508;2022-10-17T10:47:14;4.60;;;3.25;;
56201;SDS011;42117;50.360;3.508;2022-10-17T10:49:42;2.00;;;1.88;;
56201;SDS011;42117;50.360;3.508;2022-10-17T10:52:09;5.35;;;3.13;;
56201;SDS011;42117;50.360;3.508;2022-10-17T10:54:40;7.18;;;2.60;;
56201;SDS011;42117;50.360;3.508;2022-10-17T10:57:09;8.88;;;2.95;;
56201;SDS011;42117;50.360;3.508;2022-10-17T10:59:51;4.72;;;2.88;;
56201;SDS011;42117;50.360;3.508;2022-10-17T11:02:57;3.42;;;3.03;;
56201;SDS011;42117;50.360;3.508;2022-10-17T11:05:15;7.03;;;2.55;;
56201;SDS011;42117;50.360;3.508;2022-10-17T11:07:45;7.18;;;3.20;;
56201;SDS011;42117;50.360;3.508;2022-10-17T11:10:36;1.17;;;1.08;;
56201;SDS011;42117;50.360;3.508;2022-10-17T11:13:04;6.28;;;3.90;;
56201;SDS011;42117;50.360;3.508;2022-10-17T11:17:58;3.22;;;2.85;;
56201;SDS011;42117;50.360;3.508;2022-10-17T11:23:16;7.13;;;3.20;;
56201;SDS011;42117;50.360;3.508;2022-10-17T11:25:49;4.22;;;2.50;;
56201;SDS011;42117;50.360;3.508;2022-10-17T11:28:19;5.28;;;2.95;;
56201;SDS011;42117;50.360;3.508;2022-10-17T11:31:02;3.13;;;2.55;;
56201;SDS011;42117;50.360;3.508;2022-10-17T11:36:02;3.35;;;1.95;;
56201;SDS011;42117;50.360;3.508;2022-10-17T11:38:40;5.30;;;2.05;;
56201;SDS011;42117;50.360;3.508;2022-10-17T11:41:08;4.45;;;3.08;;
56201;SDS011;42117;50.360;3.508;2022-10-17T11:43:44;7.90;;;3.90;;
56201;SDS011;42117;50.360;3.508;2022-10-17T11:46:15;1.67;;;1.58;;
56201;SDS011;42117;50.360;3.508;2022-10-17T11:48:57;1.00;;;1.00;;
56201;SDS011;42117;50.360;3.508;2022-10-17T11:51:24;4.75;;;2.80;;
56201;SDS011;42117;50.360;3.508;2022-10-17T11:53:58;5.18;;;3.30;;
56201;SDS011;42117;50.360;3.508;2022-10-17T11:56:33;4.50;;;3.05;;
56201;SDS011;42117;50.360;3.508;2022-10-17T11:59:09;7.47;;;4.30;;
56201;SDS011;42117;50.360;3.508;2022-10-17T12:01:42;4.88;;;3.10;;
56201;SDS011;42117;50.360;3.508;2022-10-17T12:07:35;5.65;;;3.10;;
56201;SDS011;42117;50.360;3.508;2022-10-17T12:09:41;5.75;;;3.10;;
56201;SDS011;42117;50.360;3.508;2022-10-17T12:12:10;4.82;;;2.80;;
56201;SDS011;42117;50.360;3.508;2022-10-17T12:14:47;1.33;;;1.23;;
56201;SDS011;42117;50.360;3.508;2022-10-17T12:17:32;3.08;;;2.30;;
56201;SDS011;42117;50.360;3.508;2022-10-17T12:20:36;2.90;;;1.27;;
56201;SDS011;42117;50.360;3.508;2022-10-17T12:25:47;1.77;;;1.42;;
56201;SDS011;42117;50.360;3.508;2022-10-17T12:28:26;3.45;;;1.55;;
56201;SDS011;42117;50.360;3.508;2022-10-17T12:30:55;5.82;;;1.38;;
56201;SDS011;42117;50.360;3.508;2022-10-17T12:33:25;10.82;;;1.98;;
56201;SDS011;42117;50.360;3.508;2022-10-17T12:39:20;4.30;;;1.55;;
56201;SDS011;42117;50.360;3.508;2022-10-17T12:52:05;1.17;;;1.10;;
56201;SDS011;42117;50.360;3.508;2022-10-17T12:54:43;3.55;;;1.33;;
56201;SDS011;42117;50.360;3.508;2022-10-17T12:59:54;7.47;;;1.70;;
56201;SDS011;42117;50.360;3.508;2022-10-17T13:02:22;5.75;;;1.40;;
56201;SDS011;42117;50.360;3.508;2022-10-17T13:04:49;3.45;;;1.38;;
56201;SDS011;42117;50.360;3.508;2022-10-17T13:07:18;2.63;;;1.92;;
56201;SDS011;42117;50.360;3.508;2022-10-17T13:09:45;0.95;;;0.95;;
56201;SDS011;42117;50.360;3.508;2022-10-17T13:12:12;7.30;;;1.40;;
56201;SDS011;42117;50.360;3.508;2022-10-17T13:14:39;3.70;;;2.25;;
56201;SDS011;42117;50.360;3.508;2022-10-17T13:17:18;1.20;;;1.10;;
56201;SDS011;42117;50.360;3.508;2022-10-17T13:19:45;1.15;;;0.93;;
56201;SDS011;42117;50.360;3.508;2022-10-17T13:22:16;1.58;;;1.48;;
56201;SDS011;42117;50.360;3.508;2022-10-17T13:24:42;1.42;;;1.33;;
56201;SDS011;42117;50.360;3.508;2022-10-17T13:27:27;2.00;;;0.90;;
56201;SDS011;42117;50.360;3.508;2022-10-17T13:29:54;18.45;;;1.30;;
56201;SDS011;42117;50.360;3.508;2022-10-17T13:32:21;1.27;;;1.17;;
56201;SDS011;42117;50.360;3.508;2022-10-17T13:35:03;2.45;;;1.52;;
56201;SDS011;42117;50.360;3.508;2022-10-17T13:37:30;1.60;;;1.25;;
56201;SDS011;42117;50.360;3.508;2022-10-17T13:39:56;4.05;;;1.60;;
56201;SDS011;42117;50.360;3.508;2022-10-17T13:42:23;7.22;;;1.83;;
56201;SDS011;42117;50.360;3.508;2022-10-17T13:44:50;4.07;;;1.73;;
56201;SDS011;42117;50.360;3.508;2022-10-17T13:47:21;8.27;;;2.17;;
56201;SDS011;42117;50.360;3.508;2022-10-17T13:49:47;2.13;;;1.75;;
56201;SDS011;42117;50.360;3.508;2022-10-17T13:52:15;1.52;;;1.42;;
56201;SDS011;42117;50.360;3.508;2022-10-17T13:54:43;2.45;;;1.55;;
56201;SDS011;42117;50.360;3.508;2022-10-17T13:59:46;2.17;;;1.38;;
56201;SDS011;42117;50.360;3.508;2022-10-17T14:02:16;10.20;;;1.67;;
56201;SDS011;42117;50.360;3.508;2022-10-17T14:04:44;2.92;;;0.93;;
56201;SDS011;42117;50.360;3.508;2022-10-17T14:07:18;2.45;;;1.67;;
56201;SDS011;42117;50.360;3.508;2022-10-17T14:09:46;2.80;;;1.63;;
56201;SDS011;42117;50.360;3.508;2022-10-17T14:12:12;6.65;;;1.48;;
56201;SDS011;42117;50.360;3.508;2022-10-17T14:14:39;1.55;;;1.45;;
56201;SDS011;42117;50.360;3.508;2022-10-17T14:19:49;2.47;;;1.65;;
56201;SDS011;42117;50.360;3.508;2022-10-17T14:24:45;3.20;;;2.47;;
56201;SDS011;42117;50.360;3.508;2022-10-17T14:29:57;1.55;;;1.48;;
56201;SDS011;42117;50.360;3.508;2022-10-17T14:32:28;3.08;;;1.67;;
56201;SDS011;42117;50.360;3.508;2022-10-17T14:34:55;2.63;;;1.70;;
56201;SDS011;42117;50.360;3.508;2022-10-17T14:39:48;2.13;;;1.90;;
56201;SDS011;42117;50.360;3.508;2022-10-17T14:42:18;1.88;;;1.77;;
56201;SDS011;42117;50.360;3.508;2022-10-17T14:44:46;2.22;;;1.60;;
56201;SDS011;42117;50.360;3.508;2022-10-17T14:47:15;1.95;;;1.77;;
56201;SDS011;42117;50.360;3.508;2022-10-17T14:49:42;2.22;;;1.98;;
56201;SDS011;42117;50.360;3.508;2022-10-17T14:54:40;2.78;;;1.63;;
56201;SDS011;42117;50.360;3.508;2022-10-17T14:59:54;4.28;;;1.90;;
56201;SDS011;42117;50.360;3.508;2022-10-17T15:02:21;1.73;;;1.63;;
56201;SDS011;42117;50.360;3.508;2022-10-17T15:04:47;7.28;;;2.13;;
56201;SDS011;42117;50.360;3.508;2022-10-17T15:07:14;2.75;;;1.75;;
56201;SDS011;42117;50.360;3.508;2022-10-17T15:09:40;3.47;;;2.13;;
56201;SDS011;42117;50.360;3.508;2022-10-17T15:12:10;3.53;;;1.65;;
56201;SDS011;42117;50.360;3.508;2022-10-17T15:14:37;6.55;;;2.67;;
56201;SDS011;42117;50.360;3.508;2022-10-17T15:17:08;2.65;;;1.92;;
56201;SDS011;42117;50.360;3.508;2022-10-17T15:19:34;8.52;;;1.77;;
56201;SDS011;42117;50.360;3.508;2022-10-17T15:22:00;2.08;;;1.58;;
56201;SDS011;42117;50.360;3.508;2022-10-17T15:24:26;5.35;;;2.15;;
56201;SDS011;42117;50.360;3.508;2022-10-17T15:26:52;2.15;;;1.90;;
56201;SDS011;42117;50.360;3.508;2022-10-17T15:29:18;1.38;;;1.08;;
56201;SDS011;42117;50.360;3.508;2022-10-17T15:31:44;2.75;;;2.13;;
56201;SDS011;42117;50.360;3.508;2022-10-17T15:34:10;4.38;;;1.73;;
56201;SDS011;42117;50.360;3.508;2022-10-17T15:36:40;1.98;;;1.70;;
56201;SDS011;42117;50.360;3.508;2022-10-17T15:41:32;9.80;;;2.05;;
56201;SDS011;42117;50.360;3.508;2022-10-17T15:43:58;3.58;;;2.08;;
56201;SDS011;42117;50.360;3.508;2022-10-17T15:46:29;3.67;;;2.67;;
56201;SDS011;42117;50.360;3.508;2022-10-17T15:48:55;4.78;;;3.05;;
56201;SDS011;42117;50.360;3.508;2022-10-17T15:51:22;7.07;;;3.28;;
56201;SDS011;42117;50.360;3.508;2022-10-17T15:53:48;14.07;;;3.67;;
56201;SDS011;42117;50.360;3.508;2022-10-17T15:56:18;5.90;;;2.85;;
56201;SDS011;42117;50.360;3.508;2022-10-17T15:58:45;7.65;;;3.20;;
56201;SDS011;42117;50.360;3.508;2022-10-17T16:01:15;9.68;;;3.55;;
56201;SDS011;42117;50.360;3.508;2022-10-17T16:03:43;6.65;;;3.65;;
56201;SDS011;42117;50.360;3.508;2022-10-17T16:06:11;6.22;;;3.22;;
56201;SDS011;42117;50.360;3.508;2022-10-17T16:08:37;5.53;;;3.33;;
56201;SDS011;42117;50.360;3.508;2022-10-17T16:11:03;5.40;;;2.85;;
56201;SDS011;42117;50.360;3.508;2022-10-17T16:13:29;3.58;;;2.40;;
56201;SDS011;42117;50.360;3.508;2022-10-17T16:15:56;5.70;;;2.50;;
56201;SDS011;42117;50.360;3.508;2022-10-17T16:18:22;4.97;;;2.15;;
56201;SDS011;42117;50.360;3.508;2022-10-17T16:20:48;3.22;;;2.88;;
56201;SDS011;42117;50.360;3.508;2022-10-17T16:23:14;3.97;;;2.30;;
56201;SDS011;42117;50.360;3.508;2022-10-17T16:25:40;7.53;;;2.80;;
56201;SDS011;42117;50.360;3.508;2022-10-17T16:28:06;3.05;;;2.55;;
56201;SDS011;42117;50.360;3.508;2022-10-17T16:30:32;4.68;;;2.78;;
56201;SDS011;42117;50.360;3.508;2022-10-17T16:33:02;3.70;;;2.38;;
56201;SDS011;42117;50.360;3.508;2022-10-17T16:35:29;5.15;;;2.88;;
56201;SDS011;42117;50.360;3.508;2022-10-17T16:37:55;7.82;;;3.38;;
56201;SDS011;42117;50.360;3.508;2022-10-17T16:40:21;5.95;;;2.50;;